sensor_id;sensor_type;location;lat;lon;timestamp;pressure;altitude;pressure_sealevel;temperature;humidity
78337;BME280;67610;51.588;7.002;2023-03-14T00:00:30;98389.28;;;12.63;63.13
78337;BME280;67610;51.588;7.002;2023-03-14T00:02:55;98389.06;;;12.65;62.93
78337;BME280;67610;51.588;7.002;2023-03-14T00:05:20;98375.16;;;12.58;63.20
78337;BME280;67610;51.588;7.002;2023-03-14T00:07:46;98377.41;;;12.54;63.22
78337;BME280;67610;51.588;7.002;2023-03-14T00:10:13;98363.06;;;12.50;63.27
78337;BME280;67610;51.588;7.002;2023-03-14T00:12:40;98364.47;;;12.53;63.25
78337;BME280;67610;51.588;7.002;2023-03-14T00:15:07;98358.59;;;12.51;63.10
78337;BME280;67610;51.588;7.002;2023-03-14T00:17:34;98346.28;;;12.45;63.11
78337;BME280;67610;51.588;7.002;2023-03-14T00:19:59;98319.34;;;12.43;63.29
78337;BME280;67610;51.588;7.002;2023-03-14T00:22:36;98309.81;;;12.42;63.29
78337;BME280;67610;51.588;7.002;2023-03-14T00:25:02;98303.53;;;12.43;63.15
78337;BME280;67610;51.588;7.002;2023-03-14T00:27:28;98301.78;;;12.37;63.37
78337;BME280;67610;51.588;7.002;2023-03-14T00:29:53;98288.63;;;12.30;63.53
78337;BME280;67610;51.588;7.002;2023-03-14T00:32:18;98295.91;;;12.35;63.44
78337;BME280;67610;51.588;7.002;2023-03-14T00:34:44;98305.84;;;12.33;63.75
78337;BME280;67610;51.588;7.002;2023-03-14T00:37:09;98311.75;;;12.35;63.65
78337;BME280;67610;51.588;7.002;2023-03-14T00:39:35;98326.66;;;12.41;63.37
78337;BME280;67610;51.588;7.002;2023-03-14T00:42:00;98334.28;;;12.49;63.09
78337;BME280;67610;51.588;7.002;2023-03-14T00:44:25;98338.75;;;12.48;63.30
78337;BME280;67610;51.588;7.002;2023-03-14T00:46:51;98330.47;;;12.45;63.42
78337;BME280;67610;51.588;7.002;2023-03-14T00:49:16;98330.97;;;12.53;63.23
78337;BME280;67610;51.588;7.002;2023-03-14T00:51:42;98348.19;;;12.56;62.98
78337;BME280;67610;51.588;7.002;2023-03-14T00:54:07;98354.28;;;12.56;63.49
78337;BME280;67610;51.588;7.002;2023-03-14T00:56:32;98358.53;;;12.57;64.17
78337;BME280;67610;51.588;7.002;2023-03-14T00:58:58;98355.31;;;12.55;65.52
78337;BME280;67610;51.588;7.002;2023-03-14T01:01:27;98369.75;;;12.53;66.42
78337;BME280;67610;51.588;7.002;2023-03-14T01:04:20;98345.13;;;12.41;67.29
78337;BME280;67610;51.588;7.002;2023-03-14T01:06:46;98349.72;;;12.27;67.94
78337;BME280;67610;51.588;7.002;2023-03-14T01:09:11;98352.56;;;12.26;67.93
78337;BME280;67610;51.588;7.002;2023-03-14T01:11:37;98354.44;;;12.19;68.42
78337;BME280;67610;51.588;7.002;2023-03-14T01:14:03;98370.50;;;12.17;68.41
78337;BME280;67610;51.588;7.002;2023-03-14T01:16:31;98356.78;;;12.09;68.39
78337;BME280;67610;51.588;7.002;2023-03-14T01:18:56;98362.13;;;12.02;68.33
78337;BME280;67610;51.588;7.002;2023-03-14T01:21:24;98360.56;;;11.95;68.45
78337;BME280;67610;51.588;7.002;2023-03-14T01:23:53;98359.00;;;11.87;68.98
78337;BME280;67610;51.588;7.002;2023-03-14T01:26:21;98361.03;;;11.85;68.48
78337;BME280;67610;51.588;7.002;2023-03-14T01:28:48;98354.38;;;11.82;68.66
78337;BME280;67610;51.588;7.002;2023-03-14T01:31:14;98360.28;;;11.78;68.77
78337;BME280;67610;51.588;7.002;2023-03-14T01:33:40;98358.69;;;11.77;68.56
78337;BME280;67610;51.588;7.002;2023-03-14T01:36:06;98358.69;;;11.77;68.58
78337;BME280;67610;51.588;7.002;2023-03-14T01:38:34;98358.72;;;11.70;68.65
78337;BME280;67610;51.588;7.002;2023-03-14T01:41:00;98353.44;;;11.70;68.61
78337;BME280;67610;51.588;7.002;2023-03-14T01:43:26;98343.75;;;11.64;68.78
78337;BME280;67610;51.588;7.002;2023-03-14T01:48:37;98345.22;;;11.60;68.76
78337;BME280;67610;51.588;7.002;2023-03-14T01:51:07;98339.94;;;11.60;68.76
78337;BME280;67610;51.588;7.002;2023-03-14T01:53:34;98338.31;;;11.59;68.55
78337;BME280;67610;51.588;7.002;2023-03-14T01:56:00;98337.94;;;11.56;68.71
78337;BME280;67610;51.588;7.002;2023-03-14T01:58:28;98332.03;;;11.60;68.41
78337;BME280;67610;51.588;7.002;2023-03-14T02:00:57;98336.72;;;11.58;68.39
78337;BME280;67610;51.588;7.002;2023-03-14T02:03:25;98341.59;;;11.55;68.13
78337;BME280;67610;51.588;7.002;2023-03-14T02:05:53;98336.44;;;11.42;68.70
78337;BME280;67610;51.588;7.002;2023-03-14T02:08:21;98345.97;;;11.36;68.88
78337;BME280;67610;51.588;7.002;2023-03-14T02:10:48;98336.88;;;11.32;68.95
78337;BME280;67610;51.588;7.002;2023-03-14T02:13:16;98326.78;;;11.29;68.96
78337;BME280;67610;51.588;7.002;2023-03-14T02:15:42;98338.75;;;11.25;69.03
78337;BME280;67610;51.588;7.002;2023-03-14T02:18:08;98343.84;;;11.20;69.19
78337;BME280;67610;51.588;7.002;2023-03-14T02:23:17;98336.16;;;11.18;68.92
78337;BME280;67610;51.588;7.002;2023-03-14T02:25:51;98325.69;;;11.12;69.40
78337;BME280;67610;51.588;7.002;2023-03-14T02:28:19;98326.44;;;11.19;69.05
78337;BME280;67610;51.588;7.002;2023-03-14T02:30:45;98328.47;;;11.17;69.24
78337;BME280;67610;51.588;7.002;2023-03-14T02:33:14;98325.25;;;11.15;69.16
78337;BME280;67610;51.588;7.002;2023-03-14T02:35:47;98326.44;;;11.19;68.95
78337;BME280;67610;51.588;7.002;2023-03-14T02:38:29;98324.59;;;11.26;68.71
78337;BME280;67610;51.588;7.002;2023-03-14T02:40:56;98325.97;;;11.29;68.42
78337;BME280;67610;51.588;7.002;2023-03-14T02:43:22;98332.63;;;11.31;68.40
78337;BME280;67610;51.588;7.002;2023-03-14T02:45:48;98333.25;;;11.33;68.41
78337;BME280;67610;51.588;7.002;2023-03-14T02:48:23;98329.16;;;11.37;68.13
78337;BME280;67610;51.588;7.002;2023-03-14T02:50:52;98330.63;;;11.33;68.49
78337;BME280;67610;51.588;7.002;2023-03-14T02:53:22;98325.34;;;11.33;68.31
78337;BME280;67610;51.588;7.002;2023-03-14T02:55:48;98325.34;;;11.33;68.37
78337;BME280;67610;51.588;7.002;2023-03-14T02:58:15;98308.16;;;11.31;68.35
78337;BME280;67610;51.588;7.002;2023-03-14T03:00:40;98321.50;;;11.29;68.35
78337;BME280;67610;51.588;7.002;2023-03-14T03:03:07;98327.22;;;11.26;68.59
78337;BME280;67610;51.588;7.002;2023-03-14T03:05:33;98319.75;;;11.23;68.58
78337;BME280;67610;51.588;7.002;2023-03-14T03:07:59;98327.25;;;11.19;68.68
78337;BME280;67610;51.588;7.002;2023-03-14T03:10:26;98324.81;;;11.18;68.74
78337;BME280;67610;51.588;7.002;2023-03-14T03:12:51;98310.28;;;11.15;69.16
78337;BME280;67610;51.588;7.002;2023-03-14T03:15:18;98308.06;;;11.12;68.95
78337;BME280;67610;51.588;7.002;2023-03-14T03:17:44;98310.31;;;11.09;69.19
78337;BME280;67610;51.588;7.002;2023-03-14T03:20:09;98303.44;;;11.08;69.27
78337;BME280;67610;51.588;7.002;2023-03-14T03:22:36;98297.38;;;11.07;69.21
78337;BME280;67610;51.588;7.002;2023-03-14T03:25:04;98306.28;;;11.06;69.21
78337;BME280;67610;51.588;7.002;2023-03-14T03:27:34;98299.44;;;10.99;69.51
78337;BME280;67610;51.588;7.002;2023-03-14T03:30:01;98303.88;;;11.05;69.20
78337;BME280;67610;51.588;7.002;2023-03-14T03:32:27;98307.50;;;11.04;69.35
78337;BME280;67610;51.588;7.002;2023-03-14T03:34:53;98300.19;;;11.06;69.11
78337;BME280;67610;51.588;7.002;2023-03-14T03:37:18;98300.00;;;11.07;69.11
78337;BME280;67610;51.588;7.002;2023-03-14T03:39:43;98294.13;;;11.12;68.92
78337;BME280;67610;51.588;7.002;2023-03-14T03:42:09;98290.03;;;11.16;68.72
78337;BME280;67610;51.588;7.002;2023-03-14T03:44:35;98288.00;;;11.18;68.64
78337;BME280;67610;51.588;7.002;2023-03-14T03:47:01;98281.50;;;11.20;68.43
78337;BME280;67610;51.588;7.002;2023-03-14T03:49:31;98278.69;;;11.15;68.63
78337;BME280;67610;51.588;7.002;2023-03-14T03:51:58;98276.03;;;11.22;68.14
78337;BME280;67610;51.588;7.002;2023-03-14T03:54:23;98280.28;;;11.23;67.95
78337;BME280;67610;51.588;7.002;2023-03-14T03:56:49;98280.28;;;11.23;67.82
78337;BME280;67610;51.588;7.002;2023-03-14T03:59:14;98286.13;;;11.25;67.97
78337;BME280;67610;51.588;7.002;2023-03-14T04:01:40;98284.72;;;11.22;68.00
78337;BME280;67610;51.588;7.002;2023-03-14T04:04:06;98288.97;;;11.23;67.97
78337;BME280;67610;51.588;7.002;2023-03-14T04:06:33;98285.31;;;11.24;68.12
78337;BME280;67610;51.588;7.002;2023-03-14T04:08:59;98287.91;;;11.31;67.95
78337;BME280;67610;51.588;7.002;2023-03-14T04:11:25;98296.00;;;11.30;68.42
78337;BME280;67610;51.588;7.002;2023-03-14T04:13:50;98296.41;;;11.33;68.47
78337;BME280;67610;51.588;7.002;2023-03-14T04:16:21;98294.38;;;11.29;68.88
78337;BME280;67610;51.588;7.002;2023-03-14T04:18:47;98299.28;;;11.25;69.27
78337;BME280;67610;51.588;7.002;2023-03-14T04:21:13;98294.78;;;11.32;69.01
78337;BME280;67610;51.588;7.002;2023-03-14T04:23:39;98297.66;;;11.24;69.53
78337;BME280;67610;51.588;7.002;2023-03-14T04:26:04;98282.31;;;11.21;69.27
78337;BME280;67610;51.588;7.002;2023-03-14T04:28:30;98284.50;;;11.24;69.18
78337;BME280;67610;51.588;7.002;2023-03-14T04:30:55;98276.84;;;11.22;69.47
78337;BME280;67610;51.588;7.002;2023-03-14T04:33:21;98283.31;;;11.20;69.40
78337;BME280;67610;51.588;7.002;2023-03-14T04:35:46;98280.06;;;11.24;69.57
78337;BME280;67610;51.588;7.002;2023-03-14T04:38:13;98280.28;;;11.23;69.72
78337;BME280;67610;51.588;7.002;2023-03-14T04:40:40;98257.22;;;11.18;70.01
78337;BME280;67610;51.588;7.002;2023-03-14T04:43:06;98273.44;;;11.15;69.97
78337;BME280;67610;51.588;7.002;2023-03-14T04:45:32;98263.13;;;11.14;69.98
78337;BME280;67610;51.588;7.002;2023-03-14T04:47:59;98261.50;;;11.13;69.75
78337;BME280;67610;51.588;7.002;2023-03-14T04:50:24;98254.09;;;11.03;69.91
78337;BME280;67610;51.588;7.002;2023-03-14T04:52:50;98255.94;;;11.03;70.02
78337;BME280;67610;51.588;7.002;2023-03-14T04:55:15;98250.06;;;11.01;69.81
78337;BME280;67610;51.588;7.002;2023-03-14T04:57:41;98249.28;;;10.94;70.05
78337;BME280;67610;51.588;7.002;2023-03-14T05:00:07;98249.13;;;10.89;70.52
78337;BME280;67610;51.588;7.002;2023-03-14T05:02:33;98248.16;;;10.83;70.76
78337;BME280;67610;51.588;7.002;2023-03-14T05:04:58;98234.41;;;10.81;71.00
78337;BME280;67610;51.588;7.002;2023-03-14T05:07:24;98257.84;;;10.83;70.93
78337;BME280;67610;51.588;7.002;2023-03-14T05:09:49;98245.78;;;10.75;71.49
78337;BME280;67610;51.588;7.002;2023-03-14T05:12:15;98252.69;;;10.70;71.47
78337;BME280;67610;51.588;7.002;2023-03-14T05:14:40;98255.50;;;10.75;71.74
78337;BME280;67610;51.588;7.002;2023-03-14T05:17:05;98253.09;;;10.67;71.85
78337;BME280;67610;51.588;7.002;2023-03-14T05:19:31;98244.03;;;10.63;72.19
78337;BME280;67610;51.588;7.002;2023-03-14T05:21:57;98245.25;;;10.60;72.21
78337;BME280;67610;51.588;7.002;2023-03-14T05:24:22;98237.94;;;10.62;72.26
78337;BME280;67610;51.588;7.002;2023-03-14T05:26:48;98242.66;;;10.53;72.38
78337;BME280;67610;51.588;7.002;2023-03-14T05:29:13;98235.75;;;10.52;72.63
78337;BME280;67610;51.588;7.002;2023-03-14T05:31:38;98235.63;;;10.47;72.89
78337;BME280;67610;51.588;7.002;2023-03-14T05:34:04;98234.59;;;10.48;72.99
78337;BME280;67610;51.588;7.002;2023-03-14T05:36:29;98236.63;;;10.46;73.06
78337;BME280;67610;51.588;7.002;2023-03-14T05:38:55;98225.50;;;10.44;73.30
78337;BME280;67610;51.588;7.002;2023-03-14T05:41:20;98226.72;;;10.42;73.53
78337;BME280;67610;51.588;7.002;2023-03-14T05:43:45;98230.19;;;10.42;73.59
78337;BME280;67610;51.588;7.002;2023-03-14T05:46:11;98222.09;;;10.37;73.78
78337;BME280;67610;51.588;7.002;2023-03-14T05:48:36;98221.88;;;10.39;74.38
78337;BME280;67610;51.588;7.002;2023-03-14T05:51:02;98220.69;;;10.35;74.31
78337;BME280;67610;51.588;7.002;2023-03-14T05:53:27;98218.28;;;10.33;74.42
78337;BME280;67610;51.588;7.002;2023-03-14T05:55:55;98217.84;;;10.36;74.27
78337;BME280;67610;51.588;7.002;2023-03-14T05:58:21;98217.25;;;10.34;74.28
78337;BME280;67610;51.588;7.002;2023-03-14T06:00:46;98220.06;;;10.39;74.55
78337;BME280;67610;51.588;7.002;2023-03-14T06:03:12;98213.19;;;10.38;74.91
78337;BME280;67610;51.588;7.002;2023-03-14T06:05:37;98220.06;;;10.39;74.49
78337;BME280;67610;51.588;7.002;2023-03-14T06:08:03;98214.41;;;10.42;74.56
78337;BME280;67610;51.588;7.002;2023-03-14T06:10:28;98215.81;;;10.38;74.78
78337;BME280;67610;51.588;7.002;2023-03-14T06:12:53;98213.81;;;10.40;74.79
78337;BME280;67610;51.588;7.002;2023-03-14T06:15:19;98211.19;;;10.40;75.20
78337;BME280;67610;51.588;7.002;2023-03-14T06:17:44;98216.59;;;10.45;74.91
78337;BME280;67610;51.588;7.002;2023-03-14T06:20:10;98220.66;;;10.41;75.08
78337;BME280;67610;51.588;7.002;2023-03-14T06:22:36;98217.63;;;10.44;75.04
78337;BME280;67610;51.588;7.002;2023-03-14T06:25:02;98224.47;;;10.45;75.36
78337;BME280;67610;51.588;7.002;2023-03-14T06:27:28;98226.47;;;10.50;75.33
78337;BME280;67610;51.588;7.002;2023-03-14T06:29:54;98218.81;;;10.48;75.34
78337;BME280;67610;51.588;7.002;2023-03-14T06:32:19;98232.13;;;10.53;75.33
78337;BME280;67610;51.588;7.002;2023-03-14T06:34:45;98223.41;;;10.60;75.10
78337;BME280;67610;51.588;7.002;2023-03-14T06:37:11;98240.41;;;10.57;75.17
78337;BME280;67610;51.588;7.002;2023-03-14T06:39:36;98221.22;;;10.57;75.23
78337;BME280;67610;51.588;7.002;2023-03-14T06:42:03;98230.28;;;10.61;75.31
78337;BME280;67610;51.588;7.002;2023-03-14T06:44:29;98234.09;;;10.65;75.20
78337;BME280;67610;51.588;7.002;2023-03-14T06:46:54;98225.22;;;10.66;75.34
78337;BME280;67610;51.588;7.002;2023-03-14T06:49:19;98218.72;;;10.68;75.44
78337;BME280;67610;51.588;7.002;2023-03-14T06:51:45;98215.88;;;10.70;75.47
78337;BME280;67610;51.588;7.002;2023-03-14T06:54:10;98227.41;;;10.69;75.30
78337;BME280;67610;51.588;7.002;2023-03-14T06:56:35;98229.84;;;10.70;75.68
78337;BME280;67610;51.588;7.002;2023-03-14T06:59:01;98223.50;;;10.78;75.57
78337;BME280;67610;51.588;7.002;2023-03-14T07:01:28;98220.44;;;10.81;75.23
78337;BME280;67610;51.588;7.002;2023-03-14T07:03:54;98227.13;;;10.83;75.42
78337;BME280;67610;51.588;7.002;2023-03-14T07:06:20;98223.03;;;10.87;75.26
78337;BME280;67610;51.588;7.002;2023-03-14T07:08:46;98226.66;;;10.93;75.49
78337;BME280;67610;51.588;7.002;2023-03-14T07:11:11;98231.91;;;10.93;75.38
78337;BME280;67610;51.588;7.002;2023-03-14T07:13:40;98232.69;;;11.00;75.43
78337;BME280;67610;51.588;7.002;2023-03-14T07:16:06;98236.25;;;11.12;75.04
78337;BME280;67610;51.588;7.002;2023-03-14T07:18:32;98230.53;;;11.15;74.94
78337;BME280;67610;51.588;7.002;2023-03-14T07:20:58;98234.84;;;11.09;75.02
78337;BME280;67610;51.588;7.002;2023-03-14T07:23:23;98239.66;;;11.12;75.20
78337;BME280;67610;51.588;7.002;2023-03-14T07:25:49;98243.50;;;11.16;75.34
78337;BME280;67610;51.588;7.002;2023-03-14T07:28:16;98239.81;;;11.17;75.31
78337;BME280;67610;51.588;7.002;2023-03-14T07:30:41;98236.56;;;11.22;74.97
78337;BME280;67610;51.588;7.002;2023-03-14T07:33:06;98236.56;;;11.22;74.69
78337;BME280;67610;51.588;7.002;2023-03-14T07:35:35;98236.13;;;11.25;75.06
78337;BME280;67610;51.588;7.002;2023-03-14T07:38:00;98236.13;;;11.25;75.02
78337;BME280;67610;51.588;7.002;2023-03-14T07:40:25;98228.00;;;11.27;75.27
78337;BME280;67610;51.588;7.002;2023-03-14T07:42:51;98239.13;;;11.29;74.85
78337;BME280;67610;51.588;7.002;2023-03-14T07:45:20;98243.78;;;11.33;74.76
78337;BME280;67610;51.588;7.002;2023-03-14T07:47:45;98237.69;;;11.33;75.07
78337;BME280;67610;51.588;7.002;2023-03-14T07:50:11;98243.78;;;11.33;74.59
78337;BME280;67610;51.588;7.002;2023-03-14T07:52:36;98250.81;;;11.39;74.45
78337;BME280;67610;51.588;7.002;2023-03-14T07:55:01;98248.16;;;11.39;74.58
78337;BME280;67610;51.588;7.002;2023-03-14T07:57:27;98248.97;;;11.40;74.71
78337;BME280;67610;51.588;7.002;2023-03-14T07:59:52;98252.41;;;11.40;74.86
78337;BME280;67610;51.588;7.002;2023-03-14T08:02:18;98244.09;;;11.43;74.73
78337;BME280;67610;51.588;7.002;2023-03-14T08:04:47;98259.06;;;11.43;74.68
78337;BME280;67610;51.588;7.002;2023-03-14T08:07:12;98255.41;;;11.44;74.88
78337;BME280;67610;51.588;7.002;2023-03-14T08:09:38;98255.78;;;11.47;74.71
78337;BME280;67610;51.588;7.002;2023-03-14T08:12:03;98253.78;;;11.49;74.72
78337;BME280;67610;51.588;7.002;2023-03-14T08:14:29;98255.75;;;11.54;74.70
78337;BME280;67610;51.588;7.002;2023-03-14T08:16:58;98261.81;;;11.54;74.72
78337;BME280;67610;51.588;7.002;2023-03-14T08:19:24;98260.38;;;11.58;74.50
78337;BME280;67610;51.588;7.002;2023-03-14T08:21:49;98261.84;;;11.48;74.64
78337;BME280;67610;51.588;7.002;2023-03-14T08:24:15;98264.66;;;11.53;74.73
78337;BME280;67610;51.588;7.002;2023-03-14T08:26:40;98259.41;;;11.53;74.70
78337;BME280;67610;51.588;7.002;2023-03-14T08:29:06;98259.34;;;11.59;74.66
78337;BME280;67610;51.588;7.002;2023-03-14T08:31:34;98263.91;;;11.70;74.67
78337;BME280;67610;51.588;7.002;2023-03-14T08:33:59;98265.53;;;11.71;74.77
78337;BME280;67610;51.588;7.002;2023-03-14T08:36:25;98268.91;;;11.78;74.83
78337;BME280;67610;51.588;7.002;2023-03-14T08:38:50;98271.25;;;11.86;74.43
78337;BME280;67610;51.588;7.002;2023-03-14T08:41:16;98265.34;;;11.91;74.16
78337;BME280;67610;51.588;7.002;2023-03-14T08:43:41;98269.53;;;11.99;73.94
78337;BME280;67610;51.588;7.002;2023-03-14T08:46:07;98272.00;;;11.93;74.37
78337;BME280;67610;51.588;7.002;2023-03-14T08:48:32;98274.63;;;11.93;74.21
78337;BME280;67610;51.588;7.002;2023-03-14T08:51:24;98272.22;;;11.92;74.36
78337;BME280;67610;51.588;7.002;2023-03-14T08:53:50;98272.00;;;11.93;74.24
78337;BME280;67610;51.588;7.002;2023-03-14T08:56:16;98276.84;;;11.97;73.66
78337;BME280;67610;51.588;7.002;2023-03-14T08:58:42;98278.09;;;11.94;73.71
78337;BME280;67610;51.588;7.002;2023-03-14T09:01:09;98281.09;;;11.98;73.95
78337;BME280;67610;51.588;7.002;2023-03-14T09:03:35;98282.13;;;11.97;74.02
78337;BME280;67610;51.588;7.002;2023-03-14T09:06:09;98291.19;;;12.01;74.15
78337;BME280;67610;51.588;7.002;2023-03-14T09:08:35;98285.66;;;12.09;73.82
78337;BME280;67610;51.588;7.002;2023-03-14T09:11:01;98300.56;;;12.15;73.59
78337;BME280;67610;51.588;7.002;2023-03-14T09:13:27;98301.53;;;12.20;73.42
78337;BME280;67610;51.588;7.002;2023-03-14T09:15:53;98308.41;;;12.21;73.33
78337;BME280;67610;51.588;7.002;2023-03-14T09:18:20;98338.13;;;12.10;73.56
78337;BME280;67610;51.588;7.002;2023-03-14T09:20:45;98379.00;;;11.95;74.32
78337;BME280;67610;51.588;7.002;2023-03-14T09:23:11;98388.13;;;11.92;72.69
78337;BME280;67610;51.588;7.002;2023-03-14T09:25:36;98386.84;;;11.76;69.89
78337;BME280;67610;51.588;7.002;2023-03-14T09:28:01;98399.84;;;11.71;68.96
78337;BME280;67610;51.588;7.002;2023-03-14T09:30:27;98414.34;;;11.49;69.07
78337;BME280;67610;51.588;7.002;2023-03-14T09:32:52;98428.00;;;11.33;68.85
78337;BME280;67610;51.588;7.002;2023-03-14T09:35:18;98428.88;;;11.14;69.75
78337;BME280;67610;51.588;7.002;2023-03-14T09:37:43;98447.31;;;11.07;69.75
78337;BME280;67610;51.588;7.002;2023-03-14T09:40:13;98452.81;;;10.99;69.40
78337;BME280;67610;51.588;7.002;2023-03-14T09:42:39;98462.13;;;10.95;69.97
78337;BME280;67610;51.588;7.002;2023-03-14T09:45:11;98471.88;;;10.82;70.36
78337;BME280;67610;51.588;7.002;2023-03-14T09:47:39;98489.84;;;10.85;70.96
78337;BME280;67610;51.588;7.002;2023-03-14T09:50:11;98479.56;;;10.77;70.49
78337;BME280;67610;51.588;7.002;2023-03-14T09:52:39;98502.81;;;10.73;70.70
78337;BME280;67610;51.588;7.002;2023-03-14T09:55:10;98515.97;;;10.67;71.44
78337;BME280;67610;51.588;7.002;2023-03-14T09:57:37;98521.44;;;10.72;71.10
78337;BME280;67610;51.588;7.002;2023-03-14T10:00:15;98540.25;;;10.69;71.17
78337;BME280;67610;51.588;7.002;2023-03-14T10:02:52;98553.22;;;10.64;71.16
78337;BME280;67610;51.588;7.002;2023-03-14T10:05:20;98552.78;;;10.67;71.02
78337;BME280;67610;51.588;7.002;2023-03-14T10:07:46;98563.72;;;10.70;70.87
78337;BME280;67610;51.588;7.002;2023-03-14T10:10:20;98575.06;;;10.71;70.58
78337;BME280;67610;51.588;7.002;2023-03-14T10:12:47;98589.19;;;10.70;70.67
78337;BME280;67610;51.588;7.002;2023-03-14T10:15:16;98592.81;;;10.69;70.15
78337;BME280;67610;51.588;7.002;2023-03-14T10:17:48;98614.25;;;10.52;70.04
78337;BME280;67610;51.588;7.002;2023-03-14T10:20:35;98624.53;;;10.34;71.05
78337;BME280;67610;51.588;7.002;2023-03-14T10:23:07;98628.56;;;10.37;71.06
78337;BME280;67610;51.588;7.002;2023-03-14T10:26:08;98647.78;;;10.37;71.06
78337;BME280;67610;51.588;7.002;2023-03-14T10:28:41;98656.88;;;10.41;71.26
78337;BME280;67610;51.588;7.002;2023-03-14T10:31:07;98674.69;;;10.46;71.16
78337;BME280;67610;51.588;7.002;2023-03-14T10:33:35;98690.88;;;10.49;70.11
78337;BME280;67610;51.588;7.002;2023-03-14T10:36:19;98688.88;;;10.58;67.59
78337;BME280;67610;51.588;7.002;2023-03-14T10:38:46;98725.25;;;10.54;65.83
78337;BME280;67610;51.588;7.002;2023-03-14T10:41:26;98737.50;;;10.34;65.45
78337;BME280;67610;51.588;7.002;2023-03-14T10:43:54;98747.38;;;10.19;66.00
78337;BME280;67610;51.588;7.002;2023-03-14T10:46:23;98764.41;;;10.02;66.42
78337;BME280;67610;51.588;7.002;2023-03-14T10:48:55;98773.47;;;10.00;67.24
78337;BME280;67610;51.588;7.002;2023-03-14T10:51:29;98785.78;;;9.99;65.72
78337;BME280;67610;51.588;7.002;2023-03-14T10:54:00;98806.34;;;9.89;66.13
78337;BME280;67610;51.588;7.002;2023-03-14T10:56:28;98819.28;;;9.91;65.91
78337;BME280;67610;51.588;7.002;2023-03-14T10:58:58;98827.97;;;9.91;66.00
78337;BME280;67610;51.588;7.002;2023-03-14T11:15:49;98916.13;;;10.21;61.51
78337;BME280;67610;51.588;7.002;2023-03-14T11:23:21;98950.97;;;10.64;60.73
78337;BME280;67610;51.588;7.002;2023-03-14T11:26:00;98951.75;;;10.58;59.59
78337;BME280;67610;51.588;7.002;2023-03-14T11:28:38;98970.53;;;10.55;61.32
78337;BME280;67610;51.588;7.002;2023-03-14T11:31:22;98976.97;;;10.52;60.67
78337;BME280;67610;51.588;7.002;2023-03-14T11:36:41;99004.25;;;10.24;61.66
78337;BME280;67610;51.588;7.002;2023-03-14T11:39:18;99022.47;;;10.25;62.27
78337;BME280;67610;51.588;7.002;2023-03-14T11:41:49;99012.72;;;10.19;61.69
78337;BME280;67610;51.588;7.002;2023-03-14T11:44:19;99016.44;;;10.10;60.31
78337;BME280;67610;51.588;7.002;2023-03-14T11:49:49;99042.53;;;9.76;62.26
78337;BME280;67610;51.588;7.002;2023-03-14T11:52:37;99046.16;;;9.75;62.82
78337;BME280;67610;51.588;7.002;2023-03-14T11:57:26;99061.31;;;9.58;62.36
78337;BME280;67610;51.588;7.002;2023-03-14T12:00:12;99070.63;;;9.61;63.00
78337;BME280;67610;51.588;7.002;2023-03-14T12:10:39;99079.28;;;10.26;62.33
78337;BME280;67610;51.588;7.002;2023-03-14T12:13:09;99087.84;;;10.56;62.11
78337;BME280;67610;51.588;7.002;2023-03-14T12:15:39;99090.81;;;10.74;60.46
78337;BME280;67610;51.588;7.002;2023-03-14T12:18:19;99097.19;;;10.86;59.31
78337;BME280;67610;51.588;7.002;2023-03-14T12:21:03;99093.59;;;10.94;56.63
78337;BME280;67610;51.588;7.002;2023-03-14T12:23:50;99103.56;;;10.98;55.54
78337;BME280;67610;51.588;7.002;2023-03-14T12:26:25;99104.59;;;11.04;54.44
78337;BME280;67610;51.588;7.002;2023-03-14T12:34:27;99151.25;;;10.89;56.38
78337;BME280;67610;51.588;7.002;2023-03-14T12:39:50;99180.34;;;10.66;58.65
78337;BME280;67610;51.588;7.002;2023-03-14T12:42:43;99191.03;;;10.43;60.07
78337;BME280;67610;51.588;7.002;2023-03-14T12:50:44;99237.28;;;10.23;64.45
78337;BME280;67610;51.588;7.002;2023-03-14T12:56:25;99236.47;;;10.23;60.96
78337;BME280;67610;51.588;7.002;2023-03-14T13:02:15;99250.25;;;10.10;62.85
78337;BME280;67610;51.588;7.002;2023-03-14T13:05:01;99263.28;;;10.18;61.50
78337;BME280;67610;51.588;7.002;2023-03-14T13:10:16;99272.72;;;10.27;60.34
78337;BME280;67610;51.588;7.002;2023-03-14T13:15:19;99286.66;;;10.13;60.86
78337;BME280;67610;51.588;7.002;2023-03-14T13:17:46;99291.91;;;10.13;60.68
78337;BME280;67610;51.588;7.002;2023-03-14T13:20:18;99287.81;;;10.11;60.74
78337;BME280;67610;51.588;7.002;2023-03-14T13:22:48;99308.69;;;10.12;60.52
78337;BME280;67610;51.588;7.002;2023-03-14T13:25:13;99312.59;;;10.16;60.73
78337;BME280;67610;51.588;7.002;2023-03-14T13:27:40;99313.78;;;10.28;60.90
78337;BME280;67610;51.588;7.002;2023-03-14T13:30:23;99325.47;;;10.40;60.09
78337;BME280;67610;51.588;7.002;2023-03-14T13:32:50;99323.19;;;10.37;59.48
78337;BME280;67610;51.588;7.002;2023-03-14T13:35:28;99334.88;;;10.49;59.81
78337;BME280;67610;51.588;7.002;2023-03-14T13:37:59;99332.06;;;10.66;57.78
78337;BME280;67610;51.588;7.002;2023-03-14T13:40:30;99332.81;;;10.81;57.24
78337;BME280;67610;51.588;7.002;2023-03-14T13:43:13;99345.88;;;10.89;56.05
78337;BME280;67610;51.588;7.002;2023-03-14T13:45:57;99357.66;;;10.93;54.71
78337;BME280;67610;51.588;7.002;2023-03-14T13:48:28;99344.56;;;10.99;53.00
78337;BME280;67610;51.588;7.002;2023-03-14T13:50:58;99360.56;;;10.98;53.11
78337;BME280;67610;51.588;7.002;2023-03-14T13:53:24;99367.91;;;10.88;51.94
78337;BME280;67610;51.588;7.002;2023-03-14T13:55:51;99368.72;;;10.88;52.58
78337;BME280;67610;51.588;7.002;2023-03-14T13:58:22;99384.72;;;10.87;52.15
78337;BME280;67610;51.588;7.002;2023-03-14T14:00:58;99384.31;;;10.90;49.86
78337;BME280;67610;51.588;7.002;2023-03-14T14:03:24;99392.59;;;10.87;50.95
78337;BME280;67610;51.588;7.002;2023-03-14T14:05:50;99393.78;;;10.84;47.78
78337;BME280;67610;51.588;7.002;2023-03-14T14:08:15;99393.94;;;10.83;48.74
78337;BME280;67610;51.588;7.002;2023-03-14T14:10:41;99404.09;;;10.86;47.30